Abingdon, Virginia
Current Conditions -  °F | °C
As of 3:15 AM on Thursday 27 Nov 2014 (Local Time) from KVJI Reporting Station
Unknown Precip Unknown Precip  
Wind Chill: 37°   Ceiling: 4800
Heat Index: 37°   Visibility: 10mi
Dew Point: 34°   Wind: 3mph
Humidity: 91%   Direction: 240°WSW
Pressure: 29.96"   Gusts: NA
Location:  36.71°N, 81.98°W
Report Text: KVJI 270815Z AUTO 24003KT 10SM UP SCT020 SCT024 OVC048 03/01 A2996 RMK AO2 T00250011
Loading
Personal Weather Stations






























Interactive Weather Map New forecast layout! Learn more

10-Day Weather Forecast

Advertisements
Track Severe Weather on mobile